sensor_id;sensor_type;location;lat;lon;timestamp;temperature;humidity
35563;DHT22;21665;40.108;18.302;2023-02-01T00:00:35;7.90;99.90
35563;DHT22;21665;40.108;18.302;2023-02-01T00:03:02;7.80;99.90
35563;DHT22;21665;40.108;18.302;2023-02-01T00:05:28;7.80;99.90
35563;DHT22;21665;40.108;18.302;2023-02-01T00:07:55;7.80;99.90
35563;DHT22;21665;40.108;18.302;2023-02-01T00:10:22;7.70;99.90
35563;DHT22;21665;40.108;18.302;2023-02-01T00:12:49;7.60;99.90
35563;DHT22;21665;40.108;18.302;2023-02-01T00:15:15;7.70;99.90
35563;DHT22;21665;40.108;18.302;2023-02-01T00:17:42;7.70;99.90
35563;DHT22;21665;40.108;18.302;2023-02-01T00:20:09;7.70;99.90
35563;DHT22;21665;40.108;18.302;2023-02-01T00:22:36;7.70;99.90
35563;DHT22;21665;40.108;18.302;2023-02-01T00:25:02;7.70;99.90
35563;DHT22;21665;40.108;18.302;2023-02-01T00:27:30;7.60;99.90
35563;DHT22;21665;40.108;18.302;2023-02-01T00:29:56;7.60;99.90
35563;DHT22;21665;40.108;18.302;2023-02-01T00:32:23;7.50;99.90
35563;DHT22;21665;40.108;18.302;2023-02-01T00:34:50;7.40;99.90
35563;DHT22;21665;40.108;18.302;2023-02-01T00:37:16;7.40;99.90
35563;DHT22;21665;40.108;18.302;2023-02-01T00:39:46;7.30;99.90
35563;DHT22;21665;40.108;18.302;2023-02-01T00:42:13;7.30;99.90
35563;DHT22;21665;40.108;18.302;2023-02-01T00:44:39;7.20;99.90
35563;DHT22;21665;40.108;18.302;2023-02-01T00:47:07;7.20;99.90
35563;DHT22;21665;40.108;18.302;2023-02-01T00:49:34;7.10;99.90
35563;DHT22;21665;40.108;18.302;2023-02-01T00:52:01;7.20;99.90
35563;DHT22;21665;40.108;18.302;2023-02-01T00:54:27;7.20;99.90
35563;DHT22;21665;40.108;18.302;2023-02-01T00:56:54;7.20;99.90
35563;DHT22;21665;40.108;18.302;2023-02-01T00:59:21;7.10;99.90
35563;DHT22;21665;40.108;18.302;2023-02-01T01:01:47;7.00;99.90
35563;DHT22;21665;40.108;18.302;2023-02-01T01:04:14;7.00;99.90
35563;DHT22;21665;40.108;18.302;2023-02-01T01:06:40;6.90;99.90
35563;DHT22;21665;40.108;18.302;2023-02-01T01:09:07;6.90;99.90
35563;DHT22;21665;40.108;18.302;2023-02-01T01:11:38;7.00;99.90
35563;DHT22;21665;40.108;18.302;2023-02-01T01:14:08;7.00;99.90
35563;DHT22;21665;40.108;18.302;2023-02-01T01:16:36;7.10;99.90
35563;DHT22;21665;40.108;18.302;2023-02-01T01:19:03;7.10;99.90
35563;DHT22;21665;40.108;18.302;2023-02-01T01:21:30;7.10;99.90
35563;DHT22;21665;40.108;18.302;2023-02-01T01:23:57;7.10;99.90
35563;DHT22;21665;40.108;18.302;2023-02-01T01:26:26;7.10;99.90
35563;DHT22;21665;40.108;18.302;2023-02-01T01:28:55;7.10;99.90
35563;DHT22;21665;40.108;18.302;2023-02-01T01:31:22;7.00;99.90
35563;DHT22;21665;40.108;18.302;2023-02-01T01:33:51;7.00;99.90
35563;DHT22;21665;40.108;18.302;2023-02-01T01:36:19;7.00;99.90
35563;DHT22;21665;40.108;18.302;2023-02-01T01:38:46;7.00;99.90
35563;DHT22;21665;40.108;18.302;2023-02-01T01:41:17;6.90;99.90
35563;DHT22;21665;40.108;18.302;2023-02-01T01:44:00;7.00;99.90
35563;DHT22;21665;40.108;18.302;2023-02-01T01:46:37;7.00;99.90
35563;DHT22;21665;40.108;18.302;2023-02-01T01:49:12;7.00;99.90
35563;DHT22;21665;40.108;18.302;2023-02-01T01:51:43;7.10;99.90
35563;DHT22;21665;40.108;18.302;2023-02-01T01:54:16;7.10;99.90
35563;DHT22;21665;40.108;18.302;2023-02-01T01:56:45;7.10;99.90
35563;DHT22;21665;40.108;18.302;2023-02-01T01:59:14;7.20;99.90
35563;DHT22;21665;40.108;18.302;2023-02-01T02:01:41;7.20;99.90
35563;DHT22;21665;40.108;18.302;2023-02-01T02:04:08;7.10;99.90
35563;DHT22;21665;40.108;18.302;2023-02-01T02:07:05;7.10;99.90
35563;DHT22;21665;40.108;18.302;2023-02-01T02:09:32;7.10;99.90
35563;DHT22;21665;40.108;18.302;2023-02-01T02:11:59;7.20;99.90
35563;DHT22;21665;40.108;18.302;2023-02-01T02:14:26;7.20;99.90
35563;DHT22;21665;40.108;18.302;2023-02-01T02:28:40;6.90;99.90
35563;DHT22;21665;40.108;18.302;2023-02-01T02:31:36;6.80;99.90
35563;DHT22;21665;40.108;18.302;2023-02-01T02:37:43;6.90;99.90
35563;DHT22;21665;40.108;18.302;2023-02-01T02:40:25;6.90;99.90
35563;DHT22;21665;40.108;18.302;2023-02-01T02:46:07;6.80;99.90
35563;DHT22;21665;40.108;18.302;2023-02-01T02:49:21;6.80;99.90
35563;DHT22;21665;40.108;18.302;2023-02-01T02:51:59;6.80;99.90
35563;DHT22;21665;40.108;18.302;2023-02-01T02:54:49;6.80;99.90
35563;DHT22;21665;40.108;18.302;2023-02-01T03:00:12;6.70;99.90
35563;DHT22;21665;40.108;18.302;2023-02-01T03:02:59;6.70;99.90
35563;DHT22;21665;40.108;18.302;2023-02-01T03:05:47;6.70;99.90
35563;DHT22;21665;40.108;18.302;2023-02-01T03:08:28;6.60;99.90
35563;DHT22;21665;40.108;18.302;2023-02-01T03:11:00;6.60;99.90
35563;DHT22;21665;40.108;18.302;2023-02-01T03:18:58;6.20;99.90
35563;DHT22;21665;40.108;18.302;2023-02-01T03:21:31;6.10;99.90
35563;DHT22;21665;40.108;18.302;2023-02-01T03:24:04;6.00;99.90
35563;DHT22;21665;40.108;18.302;2023-02-01T03:26:37;5.90;99.90
35563;DHT22;21665;40.108;18.302;2023-02-01T03:29:21;5.90;99.90
35563;DHT22;21665;40.108;18.302;2023-02-01T03:31:50;5.70;99.90
35563;DHT22;21665;40.108;18.302;2023-02-01T03:34:16;5.60;99.90
35563;DHT22;21665;40.108;18.302;2023-02-01T03:36:50;5.50;99.90
35563;DHT22;21665;40.108;18.302;2023-02-01T03:39:51;5.30;99.90
35563;DHT22;21665;40.108;18.302;2023-02-01T03:42:27;5.10;99.90
35563;DHT22;21665;40.108;18.302;2023-02-01T03:45:07;4.90;99.90
35563;DHT22;21665;40.108;18.302;2023-02-01T03:47:40;4.80;99.90
35563;DHT22;21665;40.108;18.302;2023-02-01T03:50:15;4.60;99.90
35563;DHT22;21665;40.108;18.302;2023-02-01T03:53:01;4.60;99.90
35563;DHT22;21665;40.108;18.302;2023-02-01T03:55:30;4.50;99.90
35563;DHT22;21665;40.108;18.302;2023-02-01T03:58:06;4.40;99.90
35563;DHT22;21665;40.108;18.302;2023-02-01T04:00:34;4.30;99.90
35563;DHT22;21665;40.108;18.302;2023-02-01T04:03:11;4.30;99.90
35563;DHT22;21665;40.108;18.302;2023-02-01T04:05:38;4.20;99.90
35563;DHT22;21665;40.108;18.302;2023-02-01T04:08:07;4.20;99.90
35563;DHT22;21665;40.108;18.302;2023-02-01T04:10:34;4.20;99.90
35563;DHT22;21665;40.108;18.302;2023-02-01T04:13:06;4.10;99.90
35563;DHT22;21665;40.108;18.302;2023-02-01T04:15:33;4.10;99.90
35563;DHT22;21665;40.108;18.302;2023-02-01T04:18:01;4.20;99.90
35563;DHT22;21665;40.108;18.302;2023-02-01T04:20:28;4.30;99.90
35563;DHT22;21665;40.108;18.302;2023-02-01T04:22:55;4.30;99.90
35563;DHT22;21665;40.108;18.302;2023-02-01T04:25:21;4.40;99.90
35563;DHT22;21665;40.108;18.302;2023-02-01T04:27:48;4.60;99.90
35563;DHT22;21665;40.108;18.302;2023-02-01T04:30:15;4.90;99.90
35563;DHT22;21665;40.108;18.302;2023-02-01T04:32:42;5.20;99.90
35563;DHT22;21665;40.108;18.302;2023-02-01T04:35:12;5.40;99.90
35563;DHT22;21665;40.108;18.302;2023-02-01T04:37:39;5.60;99.90
35563;DHT22;21665;40.108;18.302;2023-02-01T04:40:06;5.60;99.90
35563;DHT22;21665;40.108;18.302;2023-02-01T04:42:32;5.60;99.90
35563;DHT22;21665;40.108;18.302;2023-02-01T04:44:59;5.60;99.90
35563;DHT22;21665;40.108;18.302;2023-02-01T04:47:25;5.60;99.90
35563;DHT22;21665;40.108;18.302;2023-02-01T04:49:52;5.50;99.90
35563;DHT22;21665;40.108;18.302;2023-02-01T04:52:22;5.40;99.90
35563;DHT22;21665;40.108;18.302;2023-02-01T04:54:49;5.20;99.90
35563;DHT22;21665;40.108;18.302;2023-02-01T04:57:15;5.10;99.90
35563;DHT22;21665;40.108;18.302;2023-02-01T04:59:42;4.90;99.90
35563;DHT22;21665;40.108;18.302;2023-02-01T05:02:09;4.80;99.90
35563;DHT22;21665;40.108;18.302;2023-02-01T05:04:35;4.70;99.90
35563;DHT22;21665;40.108;18.302;2023-02-01T05:07:02;4.60;99.90
35563;DHT22;21665;40.108;18.302;2023-02-01T05:09:28;4.50;99.90
35563;DHT22;21665;40.108;18.302;2023-02-01T05:11:58;4.40;99.90
35563;DHT22;21665;40.108;18.302;2023-02-01T05:14:43;4.50;99.90
35563;DHT22;21665;40.108;18.302;2023-02-01T05:17:09;4.50;99.90
35563;DHT22;21665;40.108;18.302;2023-02-01T05:19:36;4.60;99.90
35563;DHT22;21665;40.108;18.302;2023-02-01T05:22:02;4.70;99.90
35563;DHT22;21665;40.108;18.302;2023-02-01T05:24:29;4.80;99.90
35563;DHT22;21665;40.108;18.302;2023-02-01T05:26:58;4.90;99.90
35563;DHT22;21665;40.108;18.302;2023-02-01T05:29:25;4.90;99.90
35563;DHT22;21665;40.108;18.302;2023-02-01T05:31:51;4.90;99.90
35563;DHT22;21665;40.108;18.302;2023-02-01T05:34:18;4.90;99.90
35563;DHT22;21665;40.108;18.302;2023-02-01T05:36:45;5.00;99.90
35563;DHT22;21665;40.108;18.302;2023-02-01T05:39:12;5.10;99.90
35563;DHT22;21665;40.108;18.302;2023-02-01T05:41:39;5.30;99.90
35563;DHT22;21665;40.108;18.302;2023-02-01T05:44:06;5.40;99.90
35563;DHT22;21665;40.108;18.302;2023-02-01T05:46:35;5.40;99.90
35563;DHT22;21665;40.108;18.302;2023-02-01T05:49:02;5.40;99.90
35563;DHT22;21665;40.108;18.302;2023-02-01T05:51:29;5.30;99.90
35563;DHT22;21665;40.108;18.302;2023-02-01T05:53:56;5.10;99.90
35563;DHT22;21665;40.108;18.302;2023-02-01T05:56:22;5.00;99.90
35563;DHT22;21665;40.108;18.302;2023-02-01T05:58:49;4.80;99.90
35563;DHT22;21665;40.108;18.302;2023-02-01T06:01:16;4.70;99.90
35563;DHT22;21665;40.108;18.302;2023-02-01T06:03:42;4.60;99.90
35563;DHT22;21665;40.108;18.302;2023-02-01T06:06:09;4.50;99.90
35563;DHT22;21665;40.108;18.302;2023-02-01T06:08:36;4.40;99.90
35563;DHT22;21665;40.108;18.302;2023-02-01T06:11:06;4.30;99.90
35563;DHT22;21665;40.108;18.302;2023-02-01T06:13:33;4.30;99.90
35563;DHT22;21665;40.108;18.302;2023-02-01T06:16:00;4.30;99.90
35563;DHT22;21665;40.108;18.302;2023-02-01T06:18:27;4.20;99.90
35563;DHT22;21665;40.108;18.302;2023-02-01T06:20:57;4.20;99.90
35563;DHT22;21665;40.108;18.302;2023-02-01T06:23:27;4.20;99.90
35563;DHT22;21665;40.108;18.302;2023-02-01T06:26:06;4.20;99.90
35563;DHT22;21665;40.108;18.302;2023-02-01T06:28:34;4.30;99.90
35563;DHT22;21665;40.108;18.302;2023-02-01T06:31:05;4.30;99.90
35563;DHT22;21665;40.108;18.302;2023-02-01T06:33:35;4.30;99.90
35563;DHT22;21665;40.108;18.302;2023-02-01T06:36:05;4.40;99.90
35563;DHT22;21665;40.108;18.302;2023-02-01T06:38:33;4.40;99.90
35563;DHT22;21665;40.108;18.302;2023-02-01T06:41:01;4.50;99.90
35563;DHT22;21665;40.108;18.302;2023-02-01T06:43:28;4.60;99.90
35563;DHT22;21665;40.108;18.302;2023-02-01T06:46:00;4.70;99.90
35563;DHT22;21665;40.108;18.302;2023-02-01T06:48:27;4.90;99.90
35563;DHT22;21665;40.108;18.302;2023-02-01T06:51:00;5.10;99.90
35563;DHT22;21665;40.108;18.302;2023-02-01T06:53:27;5.40;99.90
35563;DHT22;21665;40.108;18.302;2023-02-01T06:55:56;5.60;99.90
35563;DHT22;21665;40.108;18.302;2023-02-01T06:58:31;5.90;99.90
35563;DHT22;21665;40.108;18.302;2023-02-01T07:01:04;6.20;99.90
35563;DHT22;21665;40.108;18.302;2023-02-01T07:03:31;6.50;99.90
35563;DHT22;21665;40.108;18.302;2023-02-01T07:05:58;6.70;99.90
35563;DHT22;21665;40.108;18.302;2023-02-01T07:08:29;6.90;99.90
35563;DHT22;21665;40.108;18.302;2023-02-01T07:11:10;7.00;99.90
35563;DHT22;21665;40.108;18.302;2023-02-01T07:13:38;7.10;99.90
35563;DHT22;21665;40.108;18.302;2023-02-01T07:16:11;7.20;99.90
35563;DHT22;21665;40.108;18.302;2023-02-01T07:18:45;7.40;99.90
35563;DHT22;21665;40.108;18.302;2023-02-01T07:21:19;7.60;99.90
35563;DHT22;21665;40.108;18.302;2023-02-01T07:23:46;7.70;99.90
35563;DHT22;21665;40.108;18.302;2023-02-01T07:26:16;8.00;99.90
35563;DHT22;21665;40.108;18.302;2023-02-01T07:28:46;8.30;99.90
35563;DHT22;21665;40.108;18.302;2023-02-01T07:31:15;8.60;99.90
35563;DHT22;21665;40.108;18.302;2023-02-01T07:33:44;8.80;99.90
35563;DHT22;21665;40.108;18.302;2023-02-01T07:36:14;9.10;99.90
35563;DHT22;21665;40.108;18.302;2023-02-01T07:38:50;9.20;99.90
35563;DHT22;21665;40.108;18.302;2023-02-01T07:41:18;9.50;99.90
35563;DHT22;21665;40.108;18.302;2023-02-01T07:43:45;9.50;99.90
35563;DHT22;21665;40.108;18.302;2023-02-01T07:46:12;9.80;99.90
35563;DHT22;21665;40.108;18.302;2023-02-01T07:48:41;9.90;99.90
35563;DHT22;21665;40.108;18.302;2023-02-01T07:51:15;9.80;99.90
35563;DHT22;21665;40.108;18.302;2023-02-01T07:53:45;9.80;99.90
35563;DHT22;21665;40.108;18.302;2023-02-01T07:56:20;9.90;99.90
35563;DHT22;21665;40.108;18.302;2023-02-01T07:58:55;9.80;99.90
35563;DHT22;21665;40.108;18.302;2023-02-01T08:01:24;10.00;99.90
35563;DHT22;21665;40.108;18.302;2023-02-01T08:06:21;10.20;99.90
35563;DHT22;21665;40.108;18.302;2023-02-01T08:08:54;10.40;99.90
35563;DHT22;21665;40.108;18.302;2023-02-01T08:11:21;10.60;99.90
35563;DHT22;21665;40.108;18.302;2023-02-01T08:13:48;10.60;99.90
35563;DHT22;21665;40.108;18.302;2023-02-01T08:16:19;10.70;99.90
35563;DHT22;21665;40.108;18.302;2023-02-01T08:18:47;10.70;99.90
35563;DHT22;21665;40.108;18.302;2023-02-01T08:21:22;10.60;99.90
35563;DHT22;21665;40.108;18.302;2023-02-01T08:23:50;10.80;99.90
35563;DHT22;21665;40.108;18.302;2023-02-01T08:26:21;10.90;99.90
35563;DHT22;21665;40.108;18.302;2023-02-01T08:28:57;11.20;99.90
35563;DHT22;21665;40.108;18.302;2023-02-01T08:31:26;11.20;99.90
35563;DHT22;21665;40.108;18.302;2023-02-01T08:33:56;11.30;99.90
35563;DHT22;21665;40.108;18.302;2023-02-01T08:36:25;11.30;99.90
35563;DHT22;21665;40.108;18.302;2023-02-01T08:42:17;11.50;99.90
35563;DHT22;21665;40.108;18.302;2023-02-01T08:45:05;11.60;99.90
35563;DHT22;21665;40.108;18.302;2023-02-01T08:47:34;11.60;99.90
35563;DHT22;21665;40.108;18.302;2023-02-01T08:50:04;11.70;99.90
35563;DHT22;21665;40.108;18.302;2023-02-01T08:52:30;11.90;99.90
35563;DHT22;21665;40.108;18.302;2023-02-01T08:55:00;11.80;99.90
35563;DHT22;21665;40.108;18.302;2023-02-01T08:57:26;11.70;99.90
35563;DHT22;21665;40.108;18.302;2023-02-01T08:59:56;11.60;99.90
35563;DHT22;21665;40.108;18.302;2023-02-01T09:02:27;11.40;99.90
35563;DHT22;21665;40.108;18.302;2023-02-01T09:04:55;11.40;99.90
35563;DHT22;21665;40.108;18.302;2023-02-01T09:07:22;11.40;99.90
35563;DHT22;21665;40.108;18.302;2023-02-01T09:09:48;11.40;99.90
35563;DHT22;21665;40.108;18.302;2023-02-01T09:12:15;11.50;99.90
35563;DHT22;21665;40.108;18.302;2023-02-01T09:14:43;11.60;99.90
35563;DHT22;21665;40.108;18.302;2023-02-01T09:17:13;11.70;99.90
35563;DHT22;21665;40.108;18.302;2023-02-01T09:19:40;11.70;99.90
35563;DHT22;21665;40.108;18.302;2023-02-01T09:22:07;11.80;99.90
35563;DHT22;21665;40.108;18.302;2023-02-01T09:24:33;11.90;99.90
35563;DHT22;21665;40.108;18.302;2023-02-01T09:26:59;11.80;99.90
35563;DHT22;21665;40.108;18.302;2023-02-01T09:29:28;12.00;99.90
35563;DHT22;21665;40.108;18.302;2023-02-01T09:31:55;12.20;99.90
35563;DHT22;21665;40.108;18.302;2023-02-01T09:34:24;12.10;99.90
35563;DHT22;21665;40.108;18.302;2023-02-01T09:36:50;12.10;99.90
35563;DHT22;21665;40.108;18.302;2023-02-01T09:39:20;12.20;99.90
35563;DHT22;21665;40.108;18.302;2023-02-01T09:47:19;12.20;99.90
35563;DHT22;21665;40.108;18.302;2023-02-01T09:50:25;12.30;99.90
35563;DHT22;21665;40.108;18.302;2023-02-01T09:52:55;12.50;99.90
35563;DHT22;21665;40.108;18.302;2023-02-01T09:55:40;12.40;99.90
35563;DHT22;21665;40.108;18.302;2023-02-01T10:00:59;12.50;99.90
35563;DHT22;21665;40.108;18.302;2023-02-01T10:03:34;12.40;99.90
35563;DHT22;21665;40.108;18.302;2023-02-01T10:09:14;12.40;99.90
35563;DHT22;21665;40.108;18.302;2023-02-01T10:18:11;12.30;99.90
35563;DHT22;21665;40.108;18.302;2023-02-01T10:26:46;12.10;99.90
35563;DHT22;21665;40.108;18.302;2023-02-01T10:29:20;12.20;99.90
35563;DHT22;21665;40.108;18.302;2023-02-01T10:31:48;12.30;99.90
35563;DHT22;21665;40.108;18.302;2023-02-01T10:34:21;12.60;99.90
35563;DHT22;21665;40.108;18.302;2023-02-01T10:36:59;12.90;99.90
35563;DHT22;21665;40.108;18.302;2023-02-01T10:39:36;13.00;99.90
35563;DHT22;21665;40.108;18.302;2023-02-01T10:42:03;13.10;99.90
35563;DHT22;21665;40.108;18.302;2023-02-01T10:44:31;13.10;99.90
35563;DHT22;21665;40.108;18.302;2023-02-01T10:47:02;13.10;99.90
35563;DHT22;21665;40.108;18.302;2023-02-01T10:50:09;12.80;99.90
35563;DHT22;21665;40.108;18.302;2023-02-01T10:52:52;12.80;99.90
35563;DHT22;21665;40.108;18.302;2023-02-01T10:55:30;12.90;99.90
35563;DHT22;21665;40.108;18.302;2023-02-01T10:58:00;12.50;99.90
35563;DHT22;21665;40.108;18.302;2023-02-01T11:00:29;12.20;99.90
35563;DHT22;21665;40.108;18.302;2023-02-01T11:06:53;12.60;99.90
35563;DHT22;21665;40.108;18.302;2023-02-01T11:09:24;12.60;99.90
35563;DHT22;21665;40.108;18.302;2023-02-01T11:11:56;12.90;99.90
35563;DHT22;21665;40.108;18.302;2023-02-01T11:14:39;12.90;99.90
35563;DHT22;21665;40.108;18.302;2023-02-01T11:19:56;12.80;99.90
35563;DHT22;21665;40.108;18.302;2023-02-01T11:22:25;12.90;99.90
35563;DHT22;21665;40.108;18.302;2023-02-01T11:24:59;12.90;99.90
35563;DHT22;21665;40.108;18.302;2023-02-01T11:27:27;12.70;99.90
35563;DHT22;21665;40.108;18.302;2023-02-01T11:29:59;12.90;99.90
35563;DHT22;21665;40.108;18.302;2023-02-01T11:32:30;13.00;99.90
35563;DHT22;21665;40.108;18.302;2023-02-01T11:35:06;12.70;99.90
35563;DHT22;21665;40.108;18.302;2023-02-01T11:41:28;12.60;99.90
35563;DHT22;21665;40.108;18.302;2023-02-01T11:43:55;12.70;99.90
35563;DHT22;21665;40.108;18.302;2023-02-01T12:11:55;12.80;99.90
35563;DHT22;21665;40.108;18.302;2023-02-01T12:15:32;12.80;99.90
35563;DHT22;21665;40.108;18.302;2023-02-01T12:53:27;13.10;99.90
35563;DHT22;21665;40.108;18.302;2023-02-01T12:56:03;13.10;99.90
35563;DHT22;21665;40.108;18.302;2023-02-01T12:58:48;13.00;99.90
35563;DHT22;21665;40.108;18.302;2023-02-01T13:01:39;12.90;99.90
35563;DHT22;21665;40.108;18.302;2023-02-01T13:04:16;13.00;99.90
35563;DHT22;21665;40.108;18.302;2023-02-01T13:09:51;12.80;99.90
35563;DHT22;21665;40.108;18.302;2023-02-01T13:13:03;12.80;99.90
35563;DHT22;21665;40.108;18.302;2023-02-01T13:16:38;12.80;99.90
35563;DHT22;21665;40.108;18.302;2023-02-01T13:25:48;12.90;99.90
35563;DHT22;21665;40.108;18.302;2023-02-01T13:28:27;12.90;99.90
35563;DHT22;21665;40.108;18.302;2023-02-01T13:31:18;12.80;99.90
35563;DHT22;21665;40.108;18.302;2023-02-01T13:37:02;12.70;99.90
35563;DHT22;21665;40.108;18.302;2023-02-01T13:45:03;12.90;99.90
35563;DHT22;21665;40.108;18.302;2023-02-01T13:47:55;12.80;99.90
35563;DHT22;21665;40.108;18.302;2023-02-01T13:56:08;12.80;99.90
35563;DHT22;21665;40.108;18.302;2023-02-01T13:58:42;12.80;99.90
35563;DHT22;21665;40.108;18.302;2023-02-01T14:03:55;12.70;99.90
35563;DHT22;21665;40.108;18.302;2023-02-01T14:11:40;12.80;99.90
35563;DHT22;21665;40.108;18.302;2023-02-01T14:19:28;12.70;99.90
35563;DHT22;21665;40.108;18.302;2023-02-01T14:25:41;12.60;99.90
35563;DHT22;21665;40.108;18.302;2023-02-01T14:28:27;12.50;99.90
35563;DHT22;21665;40.108;18.302;2023-02-01T14:30:57;12.40;99.90
35563;DHT22;21665;40.108;18.302;2023-02-01T14:33:26;12.40;99.90
35563;DHT22;21665;40.108;18.302;2023-02-01T14:36:07;12.30;99.90
35563;DHT22;21665;40.108;18.302;2023-02-01T14:38:35;12.20;99.90
35563;DHT22;21665;40.108;18.302;2023-02-01T14:41:26;12.00;99.90
35563;DHT22;21665;40.108;18.302;2023-02-01T14:52:34;11.90;99.90
35563;DHT22;21665;40.108;18.302;2023-02-01T14:55:05;11.90;99.90
35563;DHT22;21665;40.108;18.302;2023-02-01T14:57:39;11.90;99.90
35563;DHT22;21665;40.108;18.302;2023-02-01T15:00:19;11.80;99.90
35563;DHT22;21665;40.108;18.302;2023-02-01T15:02:49;11.70;99.90
35563;DHT22;21665;40.108;18.302;2023-02-01T15:05:27;11.70;99.90
35563;DHT22;21665;40.108;18.302;2023-02-01T15:11:06;11.60;99.90
35563;DHT22;21665;40.108;18.302;2023-02-01T15:13:35;11.50;99.90
35563;DHT22;21665;40.108;18.302;2023-02-01T15:16:16;11.40;99.90
35563;DHT22;21665;40.108;18.302;2023-02-01T15:18:44;11.40;99.90
35563;DHT22;21665;40.108;18.302;2023-02-01T15:21:22;11.30;99.90
35563;DHT22;21665;40.108;18.302;2023-02-01T15:24:11;11.20;99.90
35563;DHT22;21665;40.108;18.302;2023-02-01T15:26:38;11.10;99.90
35563;DHT22;21665;40.108;18.302;2023-02-01T15:29:05;11.00;99.90
35563;DHT22;21665;40.108;18.302;2023-02-01T15:31:43;10.90;99.90
35563;DHT22;21665;40.108;18.302;2023-02-01T15:34:11;10.80;99.90
35563;DHT22;21665;40.108;18.302;2023-02-01T15:36:38;10.70;99.90
35563;DHT22;21665;40.108;18.302;2023-02-01T15:39:21;10.50;99.90
35563;DHT22;21665;40.108;18.302;2023-02-01T15:42:11;10.40;99.90
35563;DHT22;21665;40.108;18.302;2023-02-01T15:44:49;10.20;99.90
35563;DHT22;21665;40.108;18.302;2023-02-01T15:47:27;10.10;99.90
35563;DHT22;21665;40.108;18.302;2023-02-01T15:49:58;10.00;99.90
35563;DHT22;21665;40.108;18.302;2023-02-01T15:52:34;9.80;99.90
35563;DHT22;21665;40.108;18.302;2023-02-01T15:55:05;9.70;99.90
35563;DHT22;21665;40.108;18.302;2023-02-01T15:57:38;9.50;99.90
35563;DHT22;21665;40.108;18.302;2023-02-01T16:02:59;9.20;99.90
35563;DHT22;21665;40.108;18.302;2023-02-01T16:05:39;9.00;99.90
35563;DHT22;21665;40.108;18.302;2023-02-01T16:08:31;8.80;99.90
35563;DHT22;21665;40.108;18.302;2023-02-01T16:11:32;8.70;99.90
35563;DHT22;21665;40.108;18.302;2023-02-01T16:14:06;8.50;99.90
35563;DHT22;21665;40.108;18.302;2023-02-01T16:16:32;8.40;99.90
35563;DHT22;21665;40.108;18.302;2023-02-01T16:18:59;8.20;99.90
35563;DHT22;21665;40.108;18.302;2023-02-01T16:21:32;8.10;99.90
35563;DHT22;21665;40.108;18.302;2023-02-01T16:26:52;8.00;99.90
35563;DHT22;21665;40.108;18.302;2023-02-01T16:29:26;7.80;99.90
35563;DHT22;21665;40.108;18.302;2023-02-01T16:34:28;7.60;99.90
35563;DHT22;21665;40.108;18.302;2023-02-01T18:46:44;5.30;99.90
35563;DHT22;21665;40.108;18.302;2023-02-01T19:01:53;5.30;99.90
35563;DHT22;21665;40.108;18.302;2023-02-01T19:04:19;5.20;99.90
35563;DHT22;21665;40.108;18.302;2023-02-01T19:06:46;5.10;99.90
35563;DHT22;21665;40.108;18.302;2023-02-01T19:09:12;5.10;99.90
35563;DHT22;21665;40.108;18.302;2023-02-01T19:11:39;5.00;99.90
35563;DHT22;21665;40.108;18.302;2023-02-01T19:14:06;5.00;99.90
35563;DHT22;21665;40.108;18.302;2023-02-01T19:16:33;4.90;99.90
35563;DHT22;21665;40.108;18.302;2023-02-01T19:19:09;5.00;99.90
35563;DHT22;21665;40.108;18.302;2023-02-01T19:21:38;5.00;99.90
35563;DHT22;21665;40.108;18.302;2023-02-01T19:24:05;5.10;99.90
35563;DHT22;21665;40.108;18.302;2023-02-01T19:26:32;5.10;99.90
35563;DHT22;21665;40.108;18.302;2023-02-01T19:28:58;5.20;99.90
35563;DHT22;21665;40.108;18.302;2023-02-01T19:31:25;5.30;99.90
35563;DHT22;21665;40.108;18.302;2023-02-01T19:33:53;5.40;99.90
35563;DHT22;21665;40.108;18.302;2023-02-01T19:36:20;5.50;99.90
35563;DHT22;21665;40.108;18.302;2023-02-01T19:38:46;5.60;99.90
35563;DHT22;21665;40.108;18.302;2023-02-01T19:41:13;5.70;99.90
35563;DHT22;21665;40.108;18.302;2023-02-01T19:43:39;5.80;99.90
35563;DHT22;21665;40.108;18.302;2023-02-01T19:46:06;5.90;99.90
35563;DHT22;21665;40.108;18.302;2023-02-01T19:48:32;5.90;99.90
35563;DHT22;21665;40.108;18.302;2023-02-01T19:51:02;6.00;99.90
35563;DHT22;21665;40.108;18.302;2023-02-01T19:53:32;6.10;99.90
35563;DHT22;21665;40.108;18.302;2023-02-01T19:56:01;6.10;99.90
35563;DHT22;21665;40.108;18.302;2023-02-01T19:58:29;6.10;99.90
35563;DHT22;21665;40.108;18.302;2023-02-01T20:00:56;6.20;99.90
35563;DHT22;21665;40.108;18.302;2023-02-01T20:03:23;6.30;99.90
35563;DHT22;21665;40.108;18.302;2023-02-01T20:05:57;6.30;99.90
35563;DHT22;21665;40.108;18.302;2023-02-01T20:08:25;6.40;99.90
35563;DHT22;21665;40.108;18.302;2023-02-01T20:10:51;6.50;99.90
35563;DHT22;21665;40.108;18.302;2023-02-01T20:13:18;6.60;99.90
35563;DHT22;21665;40.108;18.302;2023-02-01T20:15:46;6.40;99.90
35563;DHT22;21665;40.108;18.302;2023-02-01T20:18:12;6.20;99.90
35563;DHT22;21665;40.108;18.302;2023-02-01T20:20:40;6.20;99.90
35563;DHT22;21665;40.108;18.302;2023-02-01T20:23:07;6.10;99.90
35563;DHT22;21665;40.108;18.302;2023-02-01T20:25:36;6.00;99.90
35563;DHT22;21665;40.108;18.302;2023-02-01T20:28:03;5.90;99.90
35563;DHT22;21665;40.108;18.302;2023-02-01T20:30:30;5.90;99.90
35563;DHT22;21665;40.108;18.302;2023-02-01T20:32:57;5.70;99.90
35563;DHT22;21665;40.108;18.302;2023-02-01T20:35:24;5.70;99.90
35563;DHT22;21665;40.108;18.302;2023-02-01T20:37:51;5.60;99.90
35563;DHT22;21665;40.108;18.302;2023-02-01T20:40:18;5.60;99.90
35563;DHT22;21665;40.108;18.302;2023-02-01T20:42:44;5.60;99.90
35563;DHT22;21665;40.108;18.302;2023-02-01T20:45:11;5.60;99.90
35563;DHT22;21665;40.108;18.302;2023-02-01T20:47:38;5.50;99.90
35563;DHT22;21665;40.108;18.302;2023-02-01T20:50:07;5.50;99.90
35563;DHT22;21665;40.108;18.302;2023-02-01T20:52:37;5.50;99.90
35563;DHT22;21665;40.108;18.302;2023-02-01T20:55:10;5.50;99.90
35563;DHT22;21665;40.108;18.302;2023-02-01T20:57:41;5.50;99.90
35563;DHT22;21665;40.108;18.302;2023-02-01T21:00:08;5.40;99.90
35563;DHT22;21665;40.108;18.302;2023-02-01T21:02:35;5.40;99.90
35563;DHT22;21665;40.108;18.302;2023-02-01T21:05:02;5.40;99.90
35563;DHT22;21665;40.108;18.302;2023-02-01T21:07:28;5.40;99.90
35563;DHT22;21665;40.108;18.302;2023-02-01T21:09:58;5.40;99.90
35563;DHT22;21665;40.108;18.302;2023-02-01T21:12:25;5.40;99.90
35563;DHT22;21665;40.108;18.302;2023-02-01T21:14:51;5.30;99.90
35563;DHT22;21665;40.108;18.302;2023-02-01T21:17:20;5.30;99.90
35563;DHT22;21665;40.108;18.302;2023-02-01T21:28:13;5.20;99.90
35563;DHT22;21665;40.108;18.302;2023-02-01T21:31:05;5.20;99.90